createdAt,value
2019-02-07T00:00:29.942Z,5.30
2019-02-07T00:01:25.737Z,5.30
2019-02-07T00:02:03.764Z,5.30
2019-02-07T00:02:42.099Z,5.30
2019-02-07T00:03:20.025Z,5.30
2019-02-07T00:03:57.303Z,5.30
2019-02-07T00:04:35.092Z,5.30
2019-02-07T00:05:12.912Z,5.30
2019-02-07T00:05:50.451Z,5.30
2019-02-07T00:06:28.436Z,5.30
2019-02-07T00:07:06.312Z,5.30
2019-02-07T00:07:43.983Z,5.30
2019-02-07T00:08:21.922Z,5.30
2019-02-07T00:08:58.928Z,5.30
2019-02-07T00:09:37.105Z,5.30
2019-02-07T00:10:15.885Z,5.30
2019-02-07T00:10:53.698Z,5.30
2019-02-07T00:11:31.694Z,5.30
2019-02-07T00:12:09.998Z,5.30
2019-02-07T00:12:48.163Z,5.30
2019-02-07T00:13:26.257Z,5.30
2019-02-07T00:14:04.220Z,5.30
2019-02-07T00:14:42.019Z,5.30
2019-02-07T00:15:20.151Z,5.30
2019-02-07T00:15:58.449Z,5.30
2019-02-07T00:16:36.492Z,5.20
2019-02-07T00:17:14.657Z,5.20
2019-02-07T00:17:51.909Z,5.20
2019-02-07T00:18:30.057Z,5.30
2019-02-07T00:19:08.279Z,5.20
2019-02-07T00:19:46.443Z,5.20
2019-02-07T00:20:24.361Z,5.20
2019-02-07T00:21:02.067Z,5.20
2019-02-07T00:21:39.593Z,5.20
2019-02-07T00:22:17.435Z,5.30
2019-02-07T00:22:55.422Z,5.20
2019-02-07T00:23:32.845Z,5.30
2019-02-07T00:24:11.046Z,5.20
2019-02-07T00:24:48.268Z,5.20
2019-02-07T00:25:26.323Z,5.20
2019-02-07T00:26:04.333Z,5.20
2019-02-07T00:26:42.953Z,5.20
2019-02-07T00:27:20.446Z,5.20
2019-02-07T00:27:58.248Z,5.20
2019-02-07T00:28:36.085Z,5.20
2019-02-07T00:29:13.857Z,5.20
2019-02-07T00:29:51.368Z,5.20
2019-02-07T00:30:29.212Z,5.20
2019-02-07T00:31:07.113Z,5.20
2019-02-07T00:31:44.881Z,5.20
2019-02-07T00:32:22.612Z,5.20
2019-02-07T00:33:00.694Z,5.20
2019-02-07T00:33:38.134Z,5.20
2019-02-07T00:34:16.266Z,5.20
2019-02-07T00:34:53.813Z,5.20
2019-02-07T00:35:31.862Z,5.20
2019-02-07T00:36:09.686Z,5.20
2019-02-07T00:36:47.813Z,5.20
2019-02-07T00:37:25.586Z,5.20
2019-02-07T00:38:03.283Z,5.10
2019-02-07T00:38:41.256Z,5.10
2019-02-07T00:39:19.386Z,5.10
2019-02-07T00:39:57.440Z,5.10
2019-02-07T00:40:35.562Z,5.10
2019-02-07T00:41:31.839Z,5.10
2019-02-07T00:42:09.627Z,5.10
2019-02-07T00:42:47.691Z,5.10
2019-02-07T00:43:25.509Z,5.10
2019-02-07T00:44:03.290Z,5.10
2019-02-07T00:44:50.402Z,5.10
2019-02-07T00:45:20.825Z,5.10
2019-02-07T00:45:58.639Z,5.10
2019-02-07T00:46:36.823Z,5.10
2019-02-07T00:47:14.648Z,5.10
2019-02-07T00:48:10.876Z,5.10
2019-02-07T00:48:48.798Z,5.10
2019-02-07T00:49:26.372Z,5.10
2019-02-07T00:50:05.040Z,5.10
2019-02-07T00:50:43.172Z,5.10
2019-02-07T00:51:21.124Z,5.10
2019-02-07T00:51:58.528Z,5.10
2019-02-07T00:52:36.401Z,5.10
2019-02-07T00:53:14.455Z,5.10
2019-02-07T00:53:51.189Z,5.10
2019-02-07T00:54:29.133Z,5.10
2019-02-07T00:55:07.808Z,5.10
2019-02-07T00:55:45.648Z,5.10
2019-02-07T00:56:23.352Z,5.10
2019-02-07T00:57:01.497Z,5.10
2019-02-07T00:57:38.939Z,5.10
2019-02-07T00:58:16.697Z,5.10
2019-02-07T00:58:53.769Z,5.10
2019-02-07T00:59:31.149Z,5.10
2019-02-07T01:00:20.804Z,5.10
2019-02-07T01:00:58.397Z,5.10
2019-02-07T01:01:36.182Z,5.10
2019-02-07T01:02:14.064Z,5.10
2019-02-07T01:02:51.744Z,5.10
2019-02-07T01:03:29.354Z,5.10
2019-02-07T01:04:07.576Z,5.00
2019-02-07T01:04:45.355Z,5.00
2019-02-07T01:05:23.297Z,5.00
2019-02-07T01:06:01.296Z,5.00
2019-02-07T01:06:39.192Z,5.00
2019-02-07T01:07:17.263Z,5.00
2019-02-07T01:07:54.852Z,5.00
2019-02-07T01:08:32.649Z,5.00
2019-02-07T01:09:11.006Z,5.00
2019-02-07T01:09:49.773Z,5.00
2019-02-07T01:10:27.751Z,5.00
2019-02-07T01:11:05.221Z,5.00
2019-02-07T01:11:42.733Z,5.00
2019-02-07T01:12:20.572Z,5.00
2019-02-07T01:12:58.823Z,5.00
2019-02-07T01:13:36.656Z,5.00
2019-02-07T01:14:14.470Z,5.00
2019-02-07T01:15:01.622Z,5.00
2019-02-07T01:15:32.216Z,5.00
2019-02-07T01:16:09.761Z,5.00
2019-02-07T01:16:47.449Z,5.00
2019-02-07T01:17:25.231Z,5.00
2019-02-07T01:18:02.730Z,5.00
2019-02-07T01:18:40.182Z,5.00
2019-02-07T01:19:17.318Z,5.00
2019-02-07T01:19:55.257Z,5.00
2019-02-07T01:20:33.164Z,5.00
2019-02-07T01:21:11.131Z,5.00
2019-02-07T01:21:48.497Z,5.00
2019-02-07T01:22:26.176Z,5.00
2019-02-07T01:23:04.398Z,5.00
2019-02-07T01:23:42.161Z,5.00
2019-02-07T01:24:20.179Z,5.00
2019-02-07T01:24:57.944Z,5.00
2019-02-07T01:25:35.783Z,5.00
2019-02-07T01:26:13.715Z,5.00
2019-02-07T01:26:51.436Z,5.00
2019-02-07T01:27:29.188Z,5.00
2019-02-07T01:28:07.117Z,5.10
2019-02-07T01:28:44.867Z,5.10
2019-02-07T01:29:22.873Z,5.10
2019-02-07T01:30:00.887Z,5.10
2019-02-07T01:30:38.053Z,5.10
2019-02-07T01:31:15.972Z,5.10
2019-02-07T01:31:53.611Z,5.10
2019-02-07T01:32:30.694Z,5.10
2019-02-07T01:33:08.683Z,5.10
2019-02-07T01:33:46.854Z,5.10
2019-02-07T01:34:24.367Z,5.10
2019-02-07T01:35:01.764Z,5.10
2019-02-07T01:35:39.623Z,5.20
2019-02-07T01:36:17.421Z,5.20
2019-02-07T01:36:55.383Z,5.10
2019-02-07T01:37:33.187Z,5.10
2019-02-07T01:38:11.263Z,5.10
2019-02-07T01:38:48.656Z,5.10
2019-02-07T01:39:26.641Z,5.10
2019-02-07T01:40:05.515Z,5.10
2019-02-07T01:40:43.725Z,5.10
2019-02-07T01:41:21.467Z,5.10
2019-02-07T01:41:59.391Z,5.10
2019-02-07T01:42:37.515Z,5.10
2019-02-07T01:43:15.187Z,5.10
2019-02-07T01:43:52.331Z,5.20
2019-02-07T01:44:30.400Z,5.20
2019-02-07T01:45:13.156Z,5.20
2019-02-07T01:45:49.378Z,5.20
2019-02-07T01:46:27.102Z,5.20
2019-02-07T01:47:04.771Z,5.20
2019-02-07T01:47:41.851Z,5.20
2019-02-07T01:48:19.602Z,5.20
2019-02-07T01:48:57.577Z,5.20
2019-02-07T01:49:34.635Z,5.20
2019-02-07T01:50:14.057Z,5.20
2019-02-07T01:50:52.215Z,5.20
2019-02-07T01:51:29.003Z,5.10
2019-02-07T01:52:07.245Z,5.10
2019-02-07T01:52:44.945Z,5.10
2019-02-07T01:53:22.729Z,5.10
2019-02-07T01:54:00.392Z,5.10
2019-02-07T01:54:38.117Z,5.10
2019-02-07T01:55:15.958Z,5.10
2019-02-07T01:55:53.349Z,5.10
2019-02-07T01:56:31.456Z,5.10
2019-02-07T01:57:09.219Z,5.00
2019-02-07T01:57:47.160Z,5.00
2019-02-07T01:58:24.890Z,5.00
2019-02-07T01:59:02.698Z,5.00
2019-02-07T01:59:40.285Z,5.00
2019-02-07T02:00:20.300Z,5.10
2019-02-07T02:00:57.989Z,5.00
2019-02-07T02:01:35.496Z,5.00
2019-02-07T02:02:12.529Z,5.00
2019-02-07T02:02:50.129Z,5.00
2019-02-07T02:03:27.598Z,5.00
2019-02-07T02:04:05.263Z,5.10
2019-02-07T02:04:51.871Z,5.00
2019-02-07T02:05:29.771Z,5.10
2019-02-07T02:06:08.069Z,5.10
2019-02-07T02:06:45.571Z,5.00
2019-02-07T02:07:23.112Z,5.00
2019-02-07T02:08:00.596Z,5.00
2019-02-07T02:08:38.173Z,5.00
2019-02-07T02:09:15.607Z,5.00
2019-02-07T02:09:53.168Z,5.00
2019-02-07T02:10:31.383Z,5.00
2019-02-07T02:11:08.651Z,5.10
2019-02-07T02:11:46.098Z,5.10
2019-02-07T02:12:24.115Z,5.10
2019-02-07T02:13:02.042Z,5.10
2019-02-07T02:13:40.167Z,5.10
2019-02-07T02:14:18.046Z,5.10
2019-02-07T02:14:55.599Z,5.10
2019-02-07T02:15:33.442Z,5.10
2019-02-07T02:16:11.200Z,5.10
2019-02-07T02:16:49.227Z,5.10
2019-02-07T02:17:26.987Z,5.10
2019-02-07T02:18:05.004Z,5.10
2019-02-07T02:18:42.685Z,5.10
2019-02-07T02:19:19.817Z,5.10
2019-02-07T02:19:57.705Z,5.10
2019-02-07T02:20:35.829Z,5.10
2019-02-07T02:21:13.495Z,5.10
2019-02-07T02:21:50.971Z,5.10
2019-02-07T02:22:28.390Z,5.10
2019-02-07T02:23:06.871Z,5.10
2019-02-07T02:23:48.346Z,5.10
2019-02-07T02:24:26.092Z,5.10
2019-02-07T02:25:04.310Z,5.10
2019-02-07T02:25:41.915Z,5.10
2019-02-07T02:26:19.918Z,5.10
2019-02-07T02:26:57.934Z,5.10
2019-02-07T02:27:35.765Z,5.10
2019-02-07T02:28:15.062Z,5.10
2019-02-07T02:28:52.811Z,5.10
2019-02-07T02:29:30.957Z,5.10
2019-02-07T02:30:13.950Z,5.10
2019-02-07T02:30:51.839Z,5.10
2019-02-07T02:31:29.846Z,5.10
2019-02-07T02:32:07.340Z,5.10
2019-02-07T02:32:45.495Z,5.10
2019-02-07T02:33:23.026Z,5.10
2019-02-07T02:34:05.254Z,5.10
2019-02-07T02:34:43.063Z,5.10
2019-02-07T02:35:20.643Z,5.10
2019-02-07T02:35:58.634Z,5.10
2019-02-07T02:36:37.187Z,5.10
2019-02-07T02:37:14.933Z,5.10
2019-02-07T02:37:52.075Z,5.10
2019-02-07T02:38:29.998Z,5.10
2019-02-07T02:39:09.439Z,5.10
2019-02-07T02:39:48.154Z,5.10
2019-02-07T02:40:27.226Z,5.10
2019-02-07T02:41:05.222Z,5.10
2019-02-07T02:41:43.231Z,5.10
2019-02-07T02:42:20.955Z,5.10
2019-02-07T02:42:59.383Z,5.10
2019-02-07T02:43:39.499Z,5.10
2019-02-07T02:44:19.062Z,5.10
2019-02-07T02:44:57.886Z,5.10
2019-02-07T02:45:37.721Z,5.10
2019-02-07T02:46:15.357Z,5.10
2019-02-07T02:46:52.482Z,5.10
2019-02-07T02:47:30.465Z,5.10
2019-02-07T02:48:08.283Z,5.10
2019-02-07T02:48:46.215Z,5.10
2019-02-07T02:49:24.215Z,5.10
2019-02-07T02:50:01.844Z,5.10
2019-02-07T02:50:39.197Z,5.20
2019-02-07T02:51:17.214Z,5.20
2019-02-07T02:51:54.966Z,5.20
2019-02-07T02:52:32.704Z,5.20
2019-02-07T02:53:10.541Z,5.20
2019-02-07T02:53:48.531Z,5.20
2019-02-07T02:54:35.359Z,5.20
2019-02-07T02:55:15.931Z,5.20
2019-02-07T02:55:54.889Z,5.20
2019-02-07T02:56:33.292Z,5.20
2019-02-07T02:57:11.177Z,5.20
2019-02-07T02:58:07.462Z,5.20
2019-02-07T02:58:44.886Z,5.20
2019-02-07T02:59:22.703Z,5.10
2019-02-07T03:00:00.399Z,5.20
2019-02-07T03:00:56.766Z,5.10
2019-02-07T03:01:46.942Z,5.10
2019-02-07T03:02:37.584Z,5.10
2019-02-07T03:03:32.227Z,5.10
2019-02-07T03:04:27.304Z,5.10
2019-02-07T03:05:23.213Z,5.10
2019-02-07T03:06:08.885Z,5.10
2019-02-07T03:07:04.795Z,5.10
2019-02-07T03:08:01.728Z,5.10
2019-02-07T03:09:16.889Z,5.10
2019-02-07T03:10:12.289Z,5.10
2019-02-07T03:11:02.558Z,5.10
2019-02-07T03:11:58.591Z,5.10
2019-02-07T03:12:55.504Z,5.10
2019-02-07T03:14:00.693Z,5.10
2019-02-07T03:14:49.487Z,5.10
2019-02-07T03:15:51.649Z,5.10
2019-02-07T03:16:50.834Z,5.10
2019-02-07T03:18:05.685Z,5.10
2019-02-07T03:19:02.620Z,5.10
2019-02-07T03:19:58.097Z,5.10
2019-02-07T03:21:09.901Z,5.10
2019-02-07T03:22:00.493Z,5.10
2019-02-07T03:23:00.194Z,5.10
2019-02-07T03:23:55.694Z,5.10
2019-02-07T03:26:15.263Z,5.10
2019-02-07T03:27:23.720Z,5.10
2019-02-07T03:28:17.619Z,5.10
2019-02-07T03:29:14.156Z,5.10
2019-02-07T03:30:19.894Z,5.10
2019-02-07T03:31:18.272Z,5.10
2019-02-07T03:32:04.150Z,5.10
2019-02-07T03:32:52.915Z,5.10
2019-02-07T03:33:39.886Z,5.10
2019-02-07T03:34:39.894Z,5.10
2019-02-07T03:35:25.667Z,5.10
2019-02-07T03:36:24.660Z,5.10
2019-02-07T03:37:27.318Z,5.10
2019-02-07T03:38:15.023Z,5.10
2019-02-07T03:39:07.656Z,5.10
2019-02-07T03:40:13.103Z,5.10
2019-02-07T03:41:00.207Z,5.10
2019-02-07T03:42:00.725Z,5.10
2019-02-07T03:43:03.497Z,5.10
2019-02-07T03:43:59.223Z,5.10
2019-02-07T03:45:06.789Z,5.10
2019-02-07T03:46:05.493Z,5.20
2019-02-07T03:47:08.939Z,5.10
2019-02-07T03:48:03.644Z,5.10
2019-02-07T03:48:58.757Z,5.10
2019-02-07T03:50:03.673Z,5.10
2019-02-07T03:50:59.105Z,5.10
2019-02-07T03:51:54.231Z,5.10
2019-02-07T03:52:39.424Z,5.20
2019-02-07T03:53:37.954Z,5.20
2019-02-07T03:54:49.355Z,5.20
2019-02-07T03:55:39.308Z,5.20
2019-02-07T03:56:41.495Z,5.20
2019-02-07T03:57:53.493Z,5.20
2019-02-07T03:58:54.919Z,5.20
2019-02-07T03:59:57.793Z,5.20
2019-02-07T04:00:46.219Z,5.20
2019-02-07T04:01:58.061Z,5.30
2019-02-07T04:02:53.405Z,5.30
2019-02-07T04:03:46.957Z,5.30
2019-02-07T04:05:02.679Z,5.30
2019-02-07T04:06:12.723Z,5.30
2019-02-07T04:07:24.254Z,5.30
2019-02-07T04:08:18.321Z,5.30
2019-02-07T04:09:13.717Z,5.30
2019-02-07T04:10:10.251Z,5.30
2019-02-07T04:11:02.681Z,5.30
2019-02-07T04:11:58.085Z,5.40
2019-02-07T04:13:07.711Z,5.30
2019-02-07T04:14:02.180Z,5.30
2019-02-07T04:14:49.907Z,5.30
2019-02-07T04:15:43.627Z,5.40
2019-02-07T04:16:49.103Z,5.40
2019-02-07T04:17:43.769Z,5.40
2019-02-07T04:18:45.894Z,5.40
2019-02-07T04:19:48.286Z,5.40
2019-02-07T04:21:02.060Z,5.40
2019-02-07T04:22:04.282Z,5.30
2019-02-07T04:22:53.331Z,5.30
2019-02-07T04:23:43.516Z,5.40
2019-02-07T04:24:55.392Z,5.40
2019-02-07T04:25:50.296Z,5.40
2019-02-07T04:26:46.946Z,5.40
2019-02-07T04:27:34.631Z,5.40
2019-02-07T04:28:24.393Z,5.40
2019-02-07T04:29:27.074Z,5.40
2019-02-07T04:30:24.815Z,5.40
2019-02-07T04:31:20.215Z,5.40
2019-02-07T04:32:11.858Z,5.40
2019-02-07T04:33:27.098Z,5.40
2019-02-07T04:34:17.547Z,5.40
2019-02-07T04:35:28.541Z,5.40
2019-02-07T04:36:34.083Z,5.40
2019-02-07T04:37:35.920Z,5.40
2019-02-07T04:38:28.969Z,5.40
2019-02-07T04:39:28.263Z,5.40
2019-02-07T04:40:28.467Z,5.40
2019-02-07T04:41:43.230Z,5.40
2019-02-07T04:42:58.659Z,5.40
2019-02-07T04:43:49.279Z,5.40
2019-02-07T04:44:42.726Z,5.40
2019-02-07T04:45:37.818Z,5.40
2019-02-07T04:46:49.816Z,5.40
2019-02-07T04:48:04.570Z,5.40
2019-02-07T04:48:58.013Z,5.40
2019-02-07T04:50:00.415Z,5.40
2019-02-07T04:51:00.289Z,5.40
2019-02-07T04:51:55.780Z,5.40
2019-02-07T04:52:55.226Z,5.40
2019-02-07T04:53:58.146Z,5.40
2019-02-07T04:54:42.695Z,5.40
2019-02-07T04:55:38.088Z,5.40
2019-02-07T04:56:40.656Z,5.40
2019-02-07T04:57:44.350Z,5.40
2019-02-07T04:58:41.387Z,5.40
2019-02-07T04:59:37.912Z,5.40
2019-02-07T05:00:25.232Z,5.40
2019-02-07T05:01:30.976Z,5.40
2019-02-07T05:02:26.579Z,5.40
2019-02-07T05:03:21.760Z,5.40
2019-02-07T05:04:30.528Z,5.40
2019-02-07T05:05:40.616Z,5.40
2019-02-07T05:06:35.727Z,5.30
2019-02-07T05:07:39.517Z,5.40
2019-02-07T05:08:41.776Z,5.30
2019-02-07T05:09:50.790Z,5.30
2019-02-07T05:11:05.317Z,5.30
2019-02-07T05:12:05.348Z,5.30
2019-02-07T05:13:07.759Z,5.30
2019-02-07T05:13:55.734Z,5.30
2019-02-07T05:14:51.336Z,5.30
2019-02-07T05:15:46.732Z,5.30
2019-02-07T05:16:43.835Z,5.30
2019-02-07T05:17:38.352Z,5.30
2019-02-07T05:18:47.372Z,5.30
2019-02-07T05:19:59.360Z,5.30
2019-02-07T05:21:00.596Z,5.30
2019-02-07T05:21:58.244Z,5.30
2019-02-07T05:22:48.936Z,5.30
2019-02-07T05:23:54.276Z,5.30
2019-02-07T05:24:49.826Z,5.30
2019-02-07T05:25:45.579Z,5.30
2019-02-07T05:26:34.118Z,5.30
2019-02-07T05:27:18.761Z,5.30
2019-02-07T05:28:11.598Z,5.30
2019-02-07T05:29:10.789Z,5.30
2019-02-07T05:30:13.153Z,5.30
2019-02-07T05:31:10.084Z,5.30
2019-02-07T05:32:00.461Z,5.30
2019-02-07T05:32:52.075Z,5.30
2019-02-07T05:34:01.200Z,5.30
2019-02-07T05:34:50.444Z,5.30
2019-02-07T05:36:01.826Z,5.30
2019-02-07T05:36:57.216Z,5.30
2019-02-07T05:37:56.306Z,5.30
2019-02-07T05:38:55.707Z,5.30
2019-02-07T05:39:51.712Z,5.30
2019-02-07T05:40:46.604Z,5.30
2019-02-07T05:41:42.915Z,5.30
2019-02-07T05:43:08.321Z,5.30
2019-02-07T05:44:07.826Z,5.30
2019-02-07T05:45:09.569Z,5.30
2019-02-07T05:46:03.840Z,5.30
2019-02-07T05:47:12.852Z,5.30
2019-02-07T05:48:13.580Z,5.30
2019-02-07T05:49:04.237Z,5.30
2019-02-07T05:50:14.308Z,5.30
2019-02-07T05:51:08.743Z,5.30
2019-02-07T05:52:08.380Z,5.30
2019-02-07T05:52:59.328Z,5.30
2019-02-07T05:53:55.905Z,5.30
2019-02-07T05:54:56.108Z,5.30
2019-02-07T05:56:08.107Z,5.30
2019-02-07T05:57:05.043Z,5.30
2019-02-07T05:58:00.024Z,5.30
2019-02-07T05:58:59.483Z,5.30
2019-02-07T05:59:54.001Z,5.30
2019-02-07T06:00:49.910Z,5.30
2019-02-07T06:01:40.390Z,5.20
2019-02-07T06:02:27.286Z,5.20
2019-02-07T06:03:24.313Z,5.20
2019-02-07T06:04:11.433Z,5.20
2019-02-07T06:05:14.060Z,5.20
2019-02-07T06:06:06.224Z,5.20
2019-02-07T06:07:07.772Z,5.20
2019-02-07T06:08:22.320Z,5.20
2019-02-07T06:09:31.032Z,5.30
2019-02-07T06:10:47.734Z,5.30
2019-02-07T06:12:00.108Z,5.30
2019-02-07T06:12:56.232Z,5.30
2019-02-07T06:13:51.432Z,5.30
2019-02-07T06:14:46.312Z,5.30
2019-02-07T06:15:57.033Z,5.30
2019-02-07T06:17:02.208Z,5.30
2019-02-07T06:17:51.160Z,5.30
2019-02-07T06:18:43.376Z,5.30
2019-02-07T06:19:29.155Z,5.30
2019-02-07T06:20:15.841Z,5.30
2019-02-07T06:21:02.034Z,5.30
2019-02-07T06:22:09.311Z,5.30
2019-02-07T06:23:04.394Z,5.30
2019-02-07T06:23:57.128Z,5.30
2019-02-07T06:24:46.488Z,5.30
2019-02-07T06:25:52.741Z,5.20
2019-02-07T06:26:39.451Z,5.20
2019-02-07T06:27:34.607Z,5.20
2019-02-07T06:28:34.428Z,5.20
2019-02-07T06:29:39.964Z,5.20
2019-02-07T06:30:46.672Z,5.10
2019-02-07T06:31:54.881Z,5.10
2019-02-07T06:32:50.950Z,5.10
2019-02-07T06:33:43.169Z,5.10
2019-02-07T06:34:33.446Z,5.10
2019-02-07T06:35:27.616Z,5.10
2019-02-07T06:36:29.982Z,5.10
2019-02-07T06:37:32.276Z,5.10
2019-02-07T06:38:26.408Z,5.10
2019-02-07T06:39:28.463Z,5.10
2019-02-07T06:40:40.047Z,5.00
2019-02-07T06:41:35.756Z,5.00
2019-02-07T06:42:35.253Z,5.00
2019-02-07T06:43:43.853Z,5.00
2019-02-07T06:44:39.271Z,4.90
2019-02-07T06:45:34.087Z,4.90
2019-02-07T06:46:59.168Z,4.90
2019-02-07T06:48:01.596Z,4.90
2019-02-07T06:48:59.238Z,4.80
2019-02-07T06:49:54.846Z,4.80
2019-02-07T06:50:43.781Z,4.80
2019-02-07T06:51:38.474Z,4.80
2019-02-07T06:52:33.881Z,4.80
2019-02-07T06:53:36.956Z,4.80
2019-02-07T06:54:27.541Z,4.80
2019-02-07T06:55:23.481Z,4.80
2019-02-07T06:56:14.145Z,4.80
2019-02-07T06:57:08.678Z,4.80
2019-02-07T06:58:13.853Z,4.80
2019-02-07T06:59:09.051Z,4.80
2019-02-07T06:59:56.357Z,4.70
2019-02-07T07:00:46.021Z,4.70
2019-02-07T07:01:41.514Z,4.70
2019-02-07T07:02:30.975Z,4.70
2019-02-07T07:03:26.377Z,4.70
2019-02-07T07:04:12.373Z,4.70
2019-02-07T07:05:00.799Z,4.70
2019-02-07T07:06:00.590Z,4.70
2019-02-07T07:06:56.710Z,4.70
2019-02-07T07:07:52.409Z,4.70
2019-02-07T07:08:47.464Z,4.70
2019-02-07T07:09:42.269Z,4.60
2019-02-07T07:10:38.313Z,4.60
2019-02-07T07:11:26.990Z,4.60
2019-02-07T07:12:13.229Z,4.60
2019-02-07T07:13:01.887Z,4.60
2019-02-07T07:13:58.408Z,4.60
2019-02-07T07:14:52.669Z,4.60
2019-02-07T07:15:53.097Z,4.60
2019-02-07T07:16:55.222Z,4.60
2019-02-07T07:17:56.372Z,4.60
2019-02-07T07:19:07.949Z,4.60
2019-02-07T07:20:15.468Z,4.60
2019-02-07T07:21:14.718Z,4.60
2019-02-07T07:22:09.615Z,4.50
2019-02-07T07:23:05.015Z,4.50
2019-02-07T07:24:01.541Z,4.50
2019-02-07T07:24:57.348Z,4.50
2019-02-07T07:25:52.950Z,4.50
2019-02-07T07:26:48.458Z,4.50
2019-02-07T07:27:53.992Z,4.50
2019-02-07T07:28:57.169Z,4.50
2019-02-07T07:30:02.751Z,4.50
2019-02-07T07:30:58.215Z,4.50
2019-02-07T07:31:54.117Z,4.50
2019-02-07T07:32:59.870Z,4.50
2019-02-07T07:34:05.507Z,4.50
2019-02-07T07:35:00.324Z,4.50
2019-02-07T07:36:03.056Z,4.50
2019-02-07T07:37:01.507Z,4.50
2019-02-07T07:38:01.636Z,4.60
2019-02-07T07:38:51.415Z,4.60
2019-02-07T07:39:36.882Z,4.60
2019-02-07T07:40:32.283Z,4.60
2019-02-07T07:41:24.293Z,4.60
2019-02-07T07:42:23.798Z,4.60
2019-02-07T07:43:14.283Z,4.60
2019-02-07T07:44:18.699Z,4.60
2019-02-07T07:45:14.593Z,4.60
2019-02-07T07:46:10.299Z,4.60
2019-02-07T07:47:35.523Z,4.50
2019-02-07T07:48:30.058Z,4.50
2019-02-07T07:49:48.725Z,4.50
2019-02-07T07:50:57.737Z,4.50
2019-02-07T07:52:00.299Z,4.50
2019-02-07T07:52:53.373Z,4.60
2019-02-07T07:53:58.073Z,4.60
2019-02-07T07:54:42.918Z,4.60
2019-02-07T07:55:31.051Z,4.60
2019-02-07T07:56:45.953Z,4.60
2019-02-07T07:57:42.147Z,4.60
2019-02-07T07:58:48.171Z,4.50
2019-02-07T07:59:43.336Z,4.60
2019-02-07T08:00:55.153Z,4.60
2019-02-07T08:01:55.152Z,4.60
2019-02-07T08:02:50.343Z,4.60
2019-02-07T08:03:42.161Z,4.60
2019-02-07T08:04:38.379Z,4.60
2019-02-07T08:05:34.636Z,4.60
2019-02-07T08:06:29.559Z,4.60
2019-02-07T08:07:20.374Z,4.60
2019-02-07T08:08:14.968Z,4.60
2019-02-07T08:09:01.241Z,4.60
2019-02-07T08:09:47.223Z,4.60
2019-02-07T08:10:39.007Z,4.60
2019-02-07T08:11:24.197Z,4.60
2019-02-07T08:12:31.779Z,4.60
2019-02-07T08:13:33.731Z,4.60
2019-02-07T08:14:30.767Z,4.60
2019-02-07T08:15:34.447Z,4.60
2019-02-07T08:16:32.932Z,4.60
2019-02-07T08:17:47.470Z,4.60
2019-02-07T08:18:36.841Z,4.60
2019-02-07T08:19:30.833Z,4.60
2019-02-07T08:20:20.956Z,4.60
2019-02-07T08:21:12.896Z,4.60
2019-02-07T08:22:17.825Z,4.60
2019-02-07T08:23:00.779Z,4.60
2019-02-07T08:24:03.909Z,4.60
2019-02-07T08:24:53.057Z,4.60
2019-02-07T08:25:48.244Z,4.60
2019-02-07T08:26:43.448Z,4.60
2019-02-07T08:27:55.435Z,4.60
2019-02-07T08:29:03.739Z,4.60
2019-02-07T08:29:58.844Z,4.60
2019-02-07T08:31:03.023Z,4.60
2019-02-07T08:32:03.250Z,4.60
2019-02-07T08:32:58.945Z,4.60
2019-02-07T08:33:49.000Z,4.60
2019-02-07T08:34:43.905Z,4.60
2019-02-07T08:35:39.405Z,4.60
2019-02-07T08:36:51.014Z,4.60
2019-02-07T08:37:50.255Z,4.70
2019-02-07T08:38:49.845Z,4.70
2019-02-07T08:39:51.186Z,4.70
2019-02-07T08:40:45.995Z,4.70
2019-02-07T08:41:57.470Z,4.70
2019-02-07T08:43:12.139Z,4.70
2019-02-07T08:44:13.345Z,4.70
2019-02-07T08:45:13.154Z,4.70
2019-02-07T08:46:08.565Z,4.70
2019-02-07T08:47:04.275Z,4.70
2019-02-07T08:48:16.046Z,4.70
2019-02-07T08:49:21.889Z,4.80
2019-02-07T08:50:24.509Z,4.80
2019-02-07T08:51:21.707Z,4.80
2019-02-07T08:52:16.901Z,4.80
2019-02-07T08:53:12.285Z,4.90
2019-02-07T08:54:20.389Z,4.90
2019-02-07T08:55:08.620Z,4.90
2019-02-07T08:56:03.790Z,5.00
2019-02-07T08:56:58.523Z,5.00
2019-02-07T08:58:09.353Z,5.10
2019-02-07T08:59:04.294Z,5.10
2019-02-07T09:00:00.867Z,5.10
2019-02-07T09:00:44.286Z,5.10
2019-02-07T09:01:40.504Z,5.10
2019-02-07T09:02:51.835Z,5.20
2019-02-07T09:03:34.881Z,5.20
2019-02-07T09:04:34.590Z,5.20
2019-02-07T09:05:37.057Z,5.20
2019-02-07T09:06:22.211Z,5.20
2019-02-07T09:07:24.060Z,5.30
2019-02-07T09:08:15.485Z,5.30
2019-02-07T09:09:08.714Z,5.30
2019-02-07T09:09:58.764Z,5.40
2019-02-07T09:10:46.520Z,5.40
2019-02-07T09:11:41.500Z,5.50
2019-02-07T09:12:56.387Z,5.50
2019-02-07T09:13:53.737Z,5.50
2019-02-07T09:14:57.283Z,5.50
2019-02-07T09:15:47.051Z,5.50
2019-02-07T09:16:43.059Z,5.50
2019-02-07T09:17:39.592Z,5.50
2019-02-07T09:18:36.536Z,5.50
2019-02-07T09:19:33.358Z,5.50
2019-02-07T09:20:21.075Z,5.50
2019-02-07T09:21:29.796Z,5.60
2019-02-07T09:22:23.920Z,5.60
2019-02-07T09:23:07.985Z,5.60
2019-02-07T09:24:03.511Z,5.60
2019-02-07T09:25:07.899Z,5.60
2019-02-07T09:26:06.989Z,5.60
2019-02-07T09:27:02.817Z,5.60
2019-02-07T09:28:10.177Z,5.60
2019-02-07T09:29:01.887Z,5.60
2019-02-07T09:29:56.896Z,5.60
2019-02-07T09:30:50.916Z,5.60
2019-02-07T09:31:46.416Z,5.60
2019-02-07T09:32:54.491Z,5.60
2019-02-07T09:34:00.181Z,5.60
2019-02-07T09:34:56.260Z,5.60
2019-02-07T09:36:04.618Z,5.60
2019-02-07T09:36:43.717Z,5.60
2019-02-07T09:37:53.463Z,5.60
2019-02-07T09:38:49.051Z,5.60
2019-02-07T09:39:57.423Z,5.70
2019-02-07T09:40:55.406Z,5.70
2019-02-07T09:41:55.214Z,5.70
2019-02-07T09:43:06.391Z,5.80
2019-02-07T09:43:55.023Z,5.80
2019-02-07T09:44:57.279Z,5.80
2019-02-07T09:45:52.696Z,5.80
2019-02-07T09:46:55.555Z,5.80
2019-02-07T09:47:50.545Z,5.80
2019-02-07T09:48:54.070Z,5.80
2019-02-07T09:49:49.509Z,5.90
2019-02-07T09:50:44.865Z,5.90
2019-02-07T09:51:30.641Z,5.90
2019-02-07T09:52:45.780Z,5.90
2019-02-07T09:53:44.972Z,5.90
2019-02-07T09:54:50.596Z,5.90
2019-02-07T09:55:36.071Z,6.00
2019-02-07T09:56:31.157Z,5.90
2019-02-07T09:57:17.447Z,6.00
2019-02-07T09:58:22.783Z,6.00
2019-02-07T09:59:21.974Z,6.00
2019-02-07T10:00:19.724Z,6.00
2019-02-07T10:01:14.270Z,6.10
2019-02-07T10:02:26.586Z,6.10
2019-02-07T10:03:13.642Z,6.10
2019-02-07T10:03:59.677Z,6.10
2019-02-07T10:04:44.880Z,6.10
2019-02-07T10:05:36.093Z,6.10
2019-02-07T10:06:24.571Z,6.10
2019-02-07T10:07:29.800Z,6.10
2019-02-07T10:08:27.045Z,6.10
2019-02-07T10:09:43.028Z,6.00
2019-02-07T10:10:40.014Z,6.00
2019-02-07T10:11:30.513Z,6.00
2019-02-07T10:12:25.962Z,6.00
2019-02-07T10:13:22.456Z,5.90
2019-02-07T10:14:09.581Z,5.90
2019-02-07T10:15:04.361Z,5.90
2019-02-07T10:15:51.619Z,5.90
2019-02-07T10:17:02.741Z,5.90
2019-02-07T10:17:58.812Z,5.80
2019-02-07T10:18:58.277Z,5.80
2019-02-07T10:19:53.107Z,5.80
2019-02-07T10:20:48.342Z,5.80
2019-02-07T10:21:54.074Z,5.80
2019-02-07T10:22:46.604Z,5.80
2019-02-07T10:24:01.452Z,5.80
2019-02-07T10:25:07.299Z,5.80
2019-02-07T10:26:17.953Z,5.70
2019-02-07T10:27:13.974Z,5.70
2019-02-07T10:28:13.969Z,5.70
2019-02-07T10:29:06.404Z,5.70
2019-02-07T10:30:11.561Z,5.70
2019-02-07T10:30:59.748Z,5.70
2019-02-07T10:31:51.198Z,5.70
2019-02-07T10:32:38.741Z,5.70
2019-02-07T10:33:34.315Z,5.70
2019-02-07T10:34:29.578Z,5.70
2019-02-07T10:35:41.852Z,5.80
2019-02-07T10:36:53.128Z,5.80
2019-02-07T10:37:49.062Z,5.70
2019-02-07T10:38:46.499Z,5.70
2019-02-07T10:39:41.904Z,5.70
2019-02-07T10:40:32.600Z,5.80
2019-02-07T10:41:41.008Z,5.80
2019-02-07T10:42:45.593Z,5.80
2019-02-07T10:43:40.884Z,5.80
2019-02-07T10:44:29.144Z,5.80
2019-02-07T10:45:26.596Z,5.80
2019-02-07T10:46:23.525Z,5.80
2019-02-07T10:47:26.500Z,5.80
2019-02-07T10:48:24.459Z,5.80
2019-02-07T10:49:26.715Z,5.90
2019-02-07T10:50:11.860Z,5.90
2019-02-07T10:51:07.675Z,5.90
2019-02-07T10:52:04.612Z,6.00
2019-02-07T10:52:53.972Z,6.00
2019-02-07T10:53:48.963Z,6.00
2019-02-07T10:54:48.660Z,6.00
2019-02-07T10:55:37.844Z,6.10
2019-02-07T10:56:27.067Z,6.10
2019-02-07T10:57:19.398Z,6.10
2019-02-07T10:58:34.154Z,6.10
2019-02-07T10:59:23.786Z,6.10
2019-02-07T11:00:22.576Z,6.10
2019-02-07T11:01:17.380Z,6.10
2019-02-07T11:02:12.879Z,6.20
2019-02-07T11:03:16.104Z,6.20
2019-02-07T11:04:12.987Z,6.20
2019-02-07T11:05:12.278Z,6.20
2019-02-07T11:06:07.989Z,6.20
2019-02-07T11:07:12.805Z,6.20
2019-02-07T11:08:08.306Z,6.20
2019-02-07T11:09:05.244Z,6.30
2019-02-07T11:09:55.712Z,6.30
2019-02-07T11:10:43.140Z,6.30
2019-02-07T11:11:27.170Z,6.30
2019-02-07T11:12:23.392Z,6.40
2019-02-07T11:13:38.963Z,6.40
2019-02-07T11:14:33.632Z,6.30
2019-02-07T11:15:28.833Z,6.40
2019-02-07T11:16:26.287Z,6.40
2019-02-07T11:17:21.712Z,6.40
2019-02-07T11:18:26.880Z,6.40
2019-02-07T11:19:33.780Z,6.50
2019-02-07T11:20:33.068Z,6.50
2019-02-07T11:21:31.647Z,6.50
2019-02-07T11:22:27.552Z,6.50